Etusivu
METAR-TAF:

METAR-TAF

Lentoasemat :

Hobart, Oklahoma, Yhdysvallat

Leveyspiiri: 34-59-22N, Pituuspiiri: 099-03-09W, korkeus merenpinnasta: 476 m

Tämänhetkinen sää

Tämä raportti tehtiin 27 minuuttia sitten, kello 01.53 UTC
Tuuli 10 kn idästä
Lämpötila 4°C
Kosteus 70%
Ilmanpaine 1010 hPa
Näkyvyys: 16.1 km
selkeää

METAR: KHBR 150153Z AUTO 08010KT 10SM CLR 04/M01 A2983 RMK AO2 SLP106 T00391006

Aika: 20:20 (02:20 UTC)


TAF: puuttuu

Säähavainnot ja -ennusteet yli 4000 lentoasemalta (METAR- ja TAF-raportit).

Käytössä olevat sääasemat on merkitty karttaan keltaisilla ja punaisilla pisteillä.

Aseta hiiri pisteen päälle nähdäksesi sääaseman nimen.

Klikkaa sitten nähdäksesi säähavainnot ja -ennusteet.

Kartan vaihtaminen: klikkaa mustalla rastilla varustettuja vihreitä pisteitä, niin voit zoomata sisään; viivalla varustettua vihreää pistettä, niin voit zoomata ulos tai vihreitä nuolia, niin pääset viereisille kartoille.


METAR-TAF: